sensor_id;sensor_type;location;lat;lon;timestamp;P1;durP1;ratioP1;P2;durP2;ratioP2
1062;SDS011;520;50.932;6.962;2022-10-31T00:02:07;11.23;;;6.50;;
1062;SDS011;520;50.932;6.962;2022-10-31T00:04:57;11.40;;;6.50;;
1062;SDS011;520;50.932;6.962;2022-10-31T00:11:17;10.00;;;7.37;;
1062;SDS011;520;50.932;6.962;2022-10-31T00:14:03;8.90;;;6.67;;
1062;SDS011;520;50.932;6.962;2022-10-31T00:16:50;9.07;;;6.80;;
1062;SDS011;520;50.932;6.962;2022-10-31T00:19:49;9.30;;;6.50;;
1062;SDS011;520;50.932;6.962;2022-10-31T00:22:43;9.23;;;6.60;;
1062;SDS011;520;50.932;6.962;2022-10-31T00:25:14;12.30;;;7.90;;
1062;SDS011;520;50.932;6.962;2022-10-31T00:28:14;10.17;;;6.97;;
1062;SDS011;520;50.932;6.962;2022-10-31T00:31:31;10.97;;;7.43;;
1062;SDS011;520;50.932;6.962;2022-10-31T00:34:11;11.13;;;7.10;;
1062;SDS011;520;50.932;6.962;2022-10-31T00:39:56;12.40;;;8.10;;
1062;SDS011;520;50.932;6.962;2022-10-31T00:42:36;10.77;;;6.90;;
1062;SDS011;520;50.932;6.962;2022-10-31T00:46:07;10.27;;;7.60;;
1062;SDS011;520;50.932;6.962;2022-10-31T00:48:48;8.47;;;6.87;;
1062;SDS011;520;50.932;6.962;2022-10-31T00:51:26;8.83;;;7.40;;
1062;SDS011;520;50.932;6.962;2022-10-31T00:54:39;10.70;;;6.80;;
1062;SDS011;520;50.932;6.962;2022-10-31T00:57:09;10.87;;;6.63;;
1062;SDS011;520;50.932;6.962;2022-10-31T00:59:49;9.63;;;7.10;;
1062;SDS011;520;50.932;6.962;2022-10-31T01:02:18;7.00;;;6.20;;
1062;SDS011;520;50.932;6.962;2022-10-31T01:04:48;7.60;;;6.70;;
1062;SDS011;520;50.932;6.962;2022-10-31T01:07:22;13.63;;;7.73;;
1062;SDS011;520;50.932;6.962;2022-10-31T01:09:51;10.63;;;7.37;;
1062;SDS011;520;50.932;6.962;2022-10-31T01:12:40;12.07;;;7.17;;
1062;SDS011;520;50.932;6.962;2022-10-31T01:15:12;11.50;;;7.40;;
1062;SDS011;520;50.932;6.962;2022-10-31T01:17:48;11.23;;;6.60;;
1062;SDS011;520;50.932;6.962;2022-10-31T01:20:18;9.23;;;6.77;;
1062;SDS011;520;50.932;6.962;2022-10-31T01:22:47;10.00;;;7.00;;
1062;SDS011;520;50.932;6.962;2022-10-31T01:25:14;11.00;;;7.30;;
1062;SDS011;520;50.932;6.962;2022-10-31T01:27:45;11.83;;;6.53;;
1062;SDS011;520;50.932;6.962;2022-10-31T01:33:14;8.63;;;7.03;;
1062;SDS011;520;50.932;6.962;2022-10-31T01:35:54;8.10;;;7.30;;
1062;SDS011;520;50.932;6.962;2022-10-31T01:38:44;8.40;;;6.80;;
1062;SDS011;520;50.932;6.962;2022-10-31T01:41:20;9.77;;;6.60;;
1062;SDS011;520;50.932;6.962;2022-10-31T01:47:15;13.50;;;6.40;;
1062;SDS011;520;50.932;6.962;2022-10-31T01:50:00;10.20;;;7.30;;
1062;SDS011;520;50.932;6.962;2022-10-31T01:52:44;12.57;;;7.00;;
1062;SDS011;520;50.932;6.962;2022-10-31T01:55:23;11.07;;;6.80;;
1062;SDS011;520;50.932;6.962;2022-10-31T01:58:12;8.30;;;6.87;;
1062;SDS011;520;50.932;6.962;2022-10-31T02:01:00;8.13;;;7.07;;
1062;SDS011;520;50.932;6.962;2022-10-31T02:03:39;13.30;;;7.90;;
1062;SDS011;520;50.932;6.962;2022-10-31T02:06:32;12.27;;;6.93;;
1062;SDS011;520;50.932;6.962;2022-10-31T02:09:40;7.80;;;6.97;;
1062;SDS011;520;50.932;6.962;2022-10-31T02:12:20;8.97;;;6.23;;
1062;SDS011;520;50.932;6.962;2022-10-31T02:14:52;8.37;;;6.03;;
1062;SDS011;520;50.932;6.962;2022-10-31T02:20:59;9.83;;;7.33;;
1062;SDS011;520;50.932;6.962;2022-10-31T02:27:09;8.93;;;6.40;;
1062;SDS011;520;50.932;6.962;2022-10-31T02:30:05;13.90;;;7.50;;
1062;SDS011;520;50.932;6.962;2022-10-31T02:33:23;13.47;;;6.57;;
1062;SDS011;520;50.932;6.962;2022-10-31T02:36:36;10.60;;;6.70;;
1062;SDS011;520;50.932;6.962;2022-10-31T02:49:10;7.33;;;6.10;;
1062;SDS011;520;50.932;6.962;2022-10-31T02:52:16;10.43;;;6.93;;
1062;SDS011;520;50.932;6.962;2022-10-31T02:54:58;10.47;;;7.00;;
1062;SDS011;520;50.932;6.962;2022-10-31T02:57:29;7.40;;;6.70;;
1062;SDS011;520;50.932;6.962;2022-10-31T03:00:13;10.13;;;6.80;;
1062;SDS011;520;50.932;6.962;2022-10-31T03:02:59;9.37;;;6.43;;
1062;SDS011;520;50.932;6.962;2022-10-31T03:11:32;10.30;;;7.17;;
1062;SDS011;520;50.932;6.962;2022-10-31T03:17:38;8.00;;;6.97;;
1062;SDS011;520;50.932;6.962;2022-10-31T03:20:24;10.70;;;7.80;;
1062;SDS011;520;50.932;6.962;2022-10-31T03:26:30;9.63;;;6.67;;
1062;SDS011;520;50.932;6.962;2022-10-31T03:29:05;7.73;;;6.43;;
1062;SDS011;520;50.932;6.962;2022-10-31T03:31:47;8.83;;;6.20;;
1062;SDS011;520;50.932;6.962;2022-10-31T03:34:45;9.23;;;6.30;;
1062;SDS011;520;50.932;6.962;2022-10-31T03:37:27;9.00;;;6.97;;
1062;SDS011;520;50.932;6.962;2022-10-31T03:39:58;10.77;;;7.60;;
1062;SDS011;520;50.932;6.962;2022-10-31T03:42:41;8.00;;;7.00;;
1062;SDS011;520;50.932;6.962;2022-10-31T03:45:25;8.60;;;6.90;;
1062;SDS011;520;50.932;6.962;2022-10-31T03:47:58;13.40;;;7.87;;
1062;SDS011;520;50.932;6.962;2022-10-31T03:54:00;13.10;;;6.97;;
1062;SDS011;520;50.932;6.962;2022-10-31T03:56:45;9.00;;;5.63;;
1062;SDS011;520;50.932;6.962;2022-10-31T03:59:38;10.80;;;6.67;;
1062;SDS011;520;50.932;6.962;2022-10-31T04:02:23;7.87;;;7.07;;
1062;SDS011;520;50.932;6.962;2022-10-31T04:05:11;8.30;;;6.40;;
1062;SDS011;520;50.932;6.962;2022-10-31T04:08:09;11.33;;;7.40;;
1062;SDS011;520;50.932;6.962;2022-10-31T04:11:02;17.07;;;7.40;;
1062;SDS011;520;50.932;6.962;2022-10-31T04:13:49;11.43;;;7.00;;
1062;SDS011;520;50.932;6.962;2022-10-31T04:16:32;12.93;;;7.07;;
1062;SDS011;520;50.932;6.962;2022-10-31T04:19:06;10.90;;;7.00;;
1062;SDS011;520;50.932;6.962;2022-10-31T04:24:27;8.20;;;6.73;;
1062;SDS011;520;50.932;6.962;2022-10-31T04:27:11;7.20;;;6.50;;
1062;SDS011;520;50.932;6.962;2022-10-31T04:29:53;15.57;;;7.60;;
1062;SDS011;520;50.932;6.962;2022-10-31T04:35:22;7.97;;;6.17;;
1062;SDS011;520;50.932;6.962;2022-10-31T04:37:51;10.63;;;7.17;;
1062;SDS011;520;50.932;6.962;2022-10-31T04:40:25;8.77;;;6.33;;
1062;SDS011;520;50.932;6.962;2022-10-31T04:43:10;10.47;;;6.80;;
1062;SDS011;520;50.932;6.962;2022-10-31T04:45:41;12.40;;;7.13;;
1062;SDS011;520;50.932;6.962;2022-10-31T04:48:15;10.77;;;6.83;;
1062;SDS011;520;50.932;6.962;2022-10-31T04:51:07;17.13;;;10.33;;
1062;SDS011;520;50.932;6.962;2022-10-31T04:53:57;13.30;;;9.80;;
1062;SDS011;520;50.932;6.962;2022-10-31T04:56:31;15.23;;;8.73;;
1062;SDS011;520;50.932;6.962;2022-10-31T04:59:12;24.87;;;9.50;;
1062;SDS011;520;50.932;6.962;2022-10-31T05:02:03;18.93;;;10.70;;
1062;SDS011;520;50.932;6.962;2022-10-31T05:05:01;21.00;;;9.47;;
1062;SDS011;520;50.932;6.962;2022-10-31T05:07:45;19.47;;;9.10;;
1062;SDS011;520;50.932;6.962;2022-10-31T05:10:44;13.27;;;7.70;;
1062;SDS011;520;50.932;6.962;2022-10-31T05:13:11;13.33;;;8.10;;
1062;SDS011;520;50.932;6.962;2022-10-31T05:15:54;14.63;;;7.90;;
1062;SDS011;520;50.932;6.962;2022-10-31T05:18:39;18.03;;;8.30;;
1062;SDS011;520;50.932;6.962;2022-10-31T05:21:17;22.07;;;9.67;;
1062;SDS011;520;50.932;6.962;2022-10-31T05:24:14;17.07;;;8.60;;
1062;SDS011;520;50.932;6.962;2022-10-31T05:26:56;18.33;;;8.70;;
1062;SDS011;520;50.932;6.962;2022-10-31T05:29:50;16.93;;;7.97;;
1062;SDS011;520;50.932;6.962;2022-10-31T05:32:20;18.87;;;8.70;;
1062;SDS011;520;50.932;6.962;2022-10-31T05:34:57;10.97;;;7.70;;
1062;SDS011;520;50.932;6.962;2022-10-31T05:37:48;8.20;;;6.63;;
1062;SDS011;520;50.932;6.962;2022-10-31T05:40:37;10.60;;;7.50;;
1062;SDS011;520;50.932;6.962;2022-10-31T05:43:35;12.10;;;7.53;;
1062;SDS011;520;50.932;6.962;2022-10-31T05:49:16;11.27;;;7.50;;
1062;SDS011;520;50.932;6.962;2022-10-31T05:57:52;12.33;;;8.53;;
1062;SDS011;520;50.932;6.962;2022-10-31T06:00:35;12.47;;;7.10;;
1062;SDS011;520;50.932;6.962;2022-10-31T06:03:12;13.47;;;7.60;;
1062;SDS011;520;50.932;6.962;2022-10-31T06:06:05;9.57;;;7.30;;
1062;SDS011;520;50.932;6.962;2022-10-31T06:09:06;11.40;;;6.90;;
1062;SDS011;520;50.932;6.962;2022-10-31T06:11:43;14.67;;;7.73;;
1062;SDS011;520;50.932;6.962;2022-10-31T06:14:18;10.90;;;6.63;;
1062;SDS011;520;50.932;6.962;2022-10-31T06:17:14;8.20;;;6.80;;
1062;SDS011;520;50.932;6.962;2022-10-31T06:23:50;8.10;;;6.70;;
1062;SDS011;520;50.932;6.962;2022-10-31T06:26:44;7.83;;;6.60;;
1062;SDS011;520;50.932;6.962;2022-10-31T06:29:33;9.57;;;6.03;;
1062;SDS011;520;50.932;6.962;2022-10-31T06:32:30;10.63;;;7.20;;
1062;SDS011;520;50.932;6.962;2022-10-31T06:35:44;10.03;;;7.23;;
1062;SDS011;520;50.932;6.962;2022-10-31T06:38:59;9.20;;;7.07;;
1062;SDS011;520;50.932;6.962;2022-10-31T06:41:49;8.27;;;6.03;;
1062;SDS011;520;50.932;6.962;2022-10-31T06:44:28;7.60;;;6.53;;
1062;SDS011;520;50.932;6.962;2022-10-31T06:47:17;7.53;;;6.63;;
1062;SDS011;520;50.932;6.962;2022-10-31T06:49:55;8.70;;;6.90;;
1062;SDS011;520;50.932;6.962;2022-10-31T06:52:57;11.20;;;7.23;;
1062;SDS011;520;50.932;6.962;2022-10-31T06:58:50;13.03;;;8.00;;
1062;SDS011;520;50.932;6.962;2022-10-31T07:04:24;7.40;;;6.60;;
1062;SDS011;520;50.932;6.962;2022-10-31T07:08:17;17.90;;;8.40;;
1062;SDS011;520;50.932;6.962;2022-10-31T07:15:14;15.90;;;7.77;;
1062;SDS011;520;50.932;6.962;2022-10-31T07:18:12;9.50;;;7.13;;
1062;SDS011;520;50.932;6.962;2022-10-31T07:21:07;10.47;;;7.60;;
1062;SDS011;520;50.932;6.962;2022-10-31T07:23:50;12.60;;;7.10;;
1062;SDS011;520;50.932;6.962;2022-10-31T07:26:39;9.67;;;6.80;;
1062;SDS011;520;50.932;6.962;2022-10-31T07:29:37;10.00;;;6.63;;
1062;SDS011;520;50.932;6.962;2022-10-31T07:32:28;9.90;;;6.70;;
1062;SDS011;520;50.932;6.962;2022-10-31T07:35:56;11.97;;;7.30;;
1062;SDS011;520;50.932;6.962;2022-10-31T07:39:07;10.20;;;7.50;;
1062;SDS011;520;50.932;6.962;2022-10-31T07:42:08;14.47;;;8.80;;
1062;SDS011;520;50.932;6.962;2022-10-31T07:45:18;15.50;;;9.00;;
1062;SDS011;520;50.932;6.962;2022-10-31T07:52:16;17.17;;;8.40;;
1062;SDS011;520;50.932;6.962;2022-10-31T07:55:10;14.80;;;7.93;;
1062;SDS011;520;50.932;6.962;2022-10-31T07:58:38;12.40;;;7.83;;
1062;SDS011;520;50.932;6.962;2022-10-31T08:01:34;11.37;;;6.93;;
1062;SDS011;520;50.932;6.962;2022-10-31T08:08:37;10.40;;;7.03;;
1062;SDS011;520;50.932;6.962;2022-10-31T08:11:42;14.90;;;7.03;;
1062;SDS011;520;50.932;6.962;2022-10-31T08:14:33;10.43;;;6.60;;
1062;SDS011;520;50.932;6.962;2022-10-31T08:17:17;10.17;;;7.50;;
1062;SDS011;520;50.932;6.962;2022-10-31T08:19:47;10.70;;;7.00;;
1062;SDS011;520;50.932;6.962;2022-10-31T08:22:58;9.90;;;7.30;;
1062;SDS011;520;50.932;6.962;2022-10-31T08:25:38;11.40;;;7.90;;
1062;SDS011;520;50.932;6.962;2022-10-31T08:28:27;8.70;;;6.97;;
1062;SDS011;520;50.932;6.962;2022-10-31T08:35:02;11.90;;;7.40;;
1062;SDS011;520;50.932;6.962;2022-10-31T08:38:19;18.93;;;7.83;;
1062;SDS011;520;50.932;6.962;2022-10-31T08:44:11;13.83;;;8.30;;
1062;SDS011;520;50.932;6.962;2022-10-31T08:47:16;11.40;;;7.53;;
1062;SDS011;520;50.932;6.962;2022-10-31T08:51:08;9.40;;;6.87;;
1062;SDS011;520;50.932;6.962;2022-10-31T08:57:11;14.97;;;7.33;;
1062;SDS011;520;50.932;6.962;2022-10-31T09:02:59;14.80;;;7.50;;
1062;SDS011;520;50.932;6.962;2022-10-31T09:06:01;12.40;;;8.00;;
1062;SDS011;520;50.932;6.962;2022-10-31T09:09:22;15.27;;;7.77;;
1062;SDS011;520;50.932;6.962;2022-10-31T09:16:27;9.30;;;6.90;;
1062;SDS011;520;50.932;6.962;2022-10-31T09:19:54;12.00;;;7.10;;
1062;SDS011;520;50.932;6.962;2022-10-31T09:26:55;9.50;;;7.23;;
1062;SDS011;520;50.932;6.962;2022-10-31T09:36:13;14.63;;;8.73;;
1062;SDS011;520;50.932;6.962;2022-10-31T09:39:45;10.90;;;7.47;;
1062;SDS011;520;50.932;6.962;2022-10-31T10:05:00;10.03;;;6.60;;
1062;SDS011;520;50.932;6.962;2022-10-31T10:34:07;10.10;;;6.93;;
1062;SDS011;520;50.932;6.962;2022-10-31T10:37:30;10.17;;;7.37;;
1062;SDS011;520;50.932;6.962;2022-10-31T10:40:35;8.77;;;6.23;;
1062;SDS011;520;50.932;6.962;2022-10-31T10:43:38;10.10;;;7.00;;
1062;SDS011;520;50.932;6.962;2022-10-31T10:50:38;10.27;;;6.30;;
1062;SDS011;520;50.932;6.962;2022-10-31T10:58:06;14.20;;;6.20;;
1062;SDS011;520;50.932;6.962;2022-10-31T11:01:51;11.00;;;5.67;;
1062;SDS011;520;50.932;6.962;2022-10-31T11:08:59;6.93;;;5.87;;
1062;SDS011;520;50.932;6.962;2022-10-31T11:11:54;7.70;;;5.23;;
1062;SDS011;520;50.932;6.962;2022-10-31T11:14:31;7.37;;;5.57;;
1062;SDS011;520;50.932;6.962;2022-10-31T11:17:48;9.30;;;6.40;;
1062;SDS011;520;50.932;6.962;2022-10-31T11:28:42;9.80;;;6.97;;
1062;SDS011;520;50.932;6.962;2022-10-31T11:46:43;14.57;;;6.10;;
1062;SDS011;520;50.932;6.962;2022-10-31T12:28:37;6.10;;;4.60;;
1062;SDS011;520;50.932;6.962;2022-10-31T13:03:19;7.47;;;5.47;;
1062;SDS011;520;50.932;6.962;2022-10-31T13:17:20;8.37;;;3.93;;
1062;SDS011;520;50.932;6.962;2022-10-31T13:31:39;8.60;;;4.80;;
1062;SDS011;520;50.932;6.962;2022-10-31T13:50:25;11.50;;;5.00;;
1062;SDS011;520;50.932;6.962;2022-10-31T14:01:44;7.40;;;4.80;;
1062;SDS011;520;50.932;6.962;2022-10-31T14:04:58;5.17;;;4.67;;
1062;SDS011;520;50.932;6.962;2022-10-31T14:08:21;7.70;;;4.40;;
1062;SDS011;520;50.932;6.962;2022-10-31T14:22:59;5.47;;;4.17;;
1062;SDS011;520;50.932;6.962;2022-10-31T14:26:51;4.67;;;3.60;;
1062;SDS011;520;50.932;6.962;2022-10-31T14:38:48;11.70;;;4.53;;
1062;SDS011;520;50.932;6.962;2022-10-31T15:15:10;6.70;;;4.33;;
1062;SDS011;520;50.932;6.962;2022-10-31T15:18:26;8.23;;;3.97;;
1062;SDS011;520;50.932;6.962;2022-10-31T15:20:58;8.17;;;4.10;;
1062;SDS011;520;50.932;6.962;2022-10-31T15:24:10;8.70;;;3.87;;
1062;SDS011;520;50.932;6.962;2022-10-31T15:27:36;7.60;;;4.60;;
1062;SDS011;520;50.932;6.962;2022-10-31T15:30:30;7.50;;;4.30;;
1062;SDS011;520;50.932;6.962;2022-10-31T15:33:40;4.70;;;3.90;;
1062;SDS011;520;50.932;6.962;2022-10-31T15:40:18;5.30;;;3.90;;
1062;SDS011;520;50.932;6.962;2022-10-31T15:43:15;6.43;;;4.40;;
1062;SDS011;520;50.932;6.962;2022-10-31T15:45:58;8.10;;;4.00;;
1062;SDS011;520;50.932;6.962;2022-10-31T15:48:49;5.40;;;3.73;;
1062;SDS011;520;50.932;6.962;2022-10-31T15:51:59;5.37;;;4.40;;
1062;SDS011;520;50.932;6.962;2022-10-31T15:55:02;5.63;;;3.37;;
1062;SDS011;520;50.932;6.962;2022-10-31T15:57:47;5.30;;;3.33;;
1062;SDS011;520;50.932;6.962;2022-10-31T16:04:39;7.93;;;3.70;;
1062;SDS011;520;50.932;6.962;2022-10-31T16:07:57;6.23;;;4.00;;
1062;SDS011;520;50.932;6.962;2022-10-31T16:14:29;6.23;;;3.93;;
1062;SDS011;520;50.932;6.962;2022-10-31T16:17:00;6.93;;;6.23;;
1062;SDS011;520;50.932;6.962;2022-10-31T16:19:46;4.40;;;4.00;;
1062;SDS011;520;50.932;6.962;2022-10-31T16:22:39;11.03;;;5.40;;
1062;SDS011;520;50.932;6.962;2022-10-31T16:25:15;8.73;;;3.93;;
1062;SDS011;520;50.932;6.962;2022-10-31T16:27:54;9.97;;;4.60;;
1062;SDS011;520;50.932;6.962;2022-10-31T16:33:21;7.30;;;4.33;;
1062;SDS011;520;50.932;6.962;2022-10-31T16:35:57;5.50;;;4.27;;
1062;SDS011;520;50.932;6.962;2022-10-31T16:38:51;12.73;;;5.50;;
1062;SDS011;520;50.932;6.962;2022-10-31T16:42:00;6.80;;;4.17;;
1062;SDS011;520;50.932;6.962;2022-10-31T16:44:52;9.43;;;4.77;;
1062;SDS011;520;50.932;6.962;2022-10-31T16:47:37;10.50;;;4.87;;
1062;SDS011;520;50.932;6.962;2022-10-31T16:50:15;6.83;;;4.53;;
1062;SDS011;520;50.932;6.962;2022-10-31T16:52:53;5.60;;;4.50;;
1062;SDS011;520;50.932;6.962;2022-10-31T16:55:48;6.50;;;5.07;;
1062;SDS011;520;50.932;6.962;2022-10-31T16:58:51;11.13;;;5.33;;
1062;SDS011;520;50.932;6.962;2022-10-31T17:01:25;10.53;;;4.73;;
1062;SDS011;520;50.932;6.962;2022-10-31T17:04:22;9.03;;;5.27;;
1062;SDS011;520;50.932;6.962;2022-10-31T17:06:57;5.63;;;3.73;;
1062;SDS011;520;50.932;6.962;2022-10-31T17:09:24;6.90;;;4.20;;
1062;SDS011;520;50.932;6.962;2022-10-31T17:12:10;7.37;;;4.73;;
1062;SDS011;520;50.932;6.962;2022-10-31T17:14:44;6.83;;;4.97;;
1062;SDS011;520;50.932;6.962;2022-10-31T17:17:18;6.17;;;4.27;;
1062;SDS011;520;50.932;6.962;2022-10-31T17:19:45;6.90;;;4.30;;
1062;SDS011;520;50.932;6.962;2022-10-31T17:22:22;6.50;;;4.53;;
1062;SDS011;520;50.932;6.962;2022-10-31T17:24:57;9.67;;;4.33;;
1062;SDS011;520;50.932;6.962;2022-10-31T17:27:26;8.83;;;4.27;;
1062;SDS011;520;50.932;6.962;2022-10-31T17:29:53;8.27;;;4.30;;
1062;SDS011;520;50.932;6.962;2022-10-31T17:32:30;11.17;;;4.70;;
1062;SDS011;520;50.932;6.962;2022-10-31T17:35:01;6.17;;;4.50;;
1062;SDS011;520;50.932;6.962;2022-10-31T17:37:49;7.50;;;4.50;;
1062;SDS011;520;50.932;6.962;2022-10-31T17:40:25;5.33;;;4.20;;
1062;SDS011;520;50.932;6.962;2022-10-31T17:43:11;13.90;;;4.57;;
1062;SDS011;520;50.932;6.962;2022-10-31T17:46:01;6.33;;;4.40;;
1062;SDS011;520;50.932;6.962;2022-10-31T17:48:34;6.40;;;3.77;;
1062;SDS011;520;50.932;6.962;2022-10-31T17:51:18;7.17;;;5.33;;
1062;SDS011;520;50.932;6.962;2022-10-31T17:53:56;8.50;;;4.03;;
1062;SDS011;520;50.932;6.962;2022-10-31T17:56:31;9.53;;;4.47;;
1062;SDS011;520;50.932;6.962;2022-10-31T17:59:54;5.43;;;4.17;;
1062;SDS011;520;50.932;6.962;2022-10-31T18:02:34;8.40;;;5.20;;
1062;SDS011;520;50.932;6.962;2022-10-31T18:05:05;8.50;;;4.37;;
1062;SDS011;520;50.932;6.962;2022-10-31T18:08:02;8.93;;;5.03;;
1062;SDS011;520;50.932;6.962;2022-10-31T18:11:13;9.13;;;4.37;;
1062;SDS011;520;50.932;6.962;2022-10-31T18:14:05;9.90;;;4.60;;
1062;SDS011;520;50.932;6.962;2022-10-31T18:16:43;7.30;;;4.90;;
1062;SDS011;520;50.932;6.962;2022-10-31T18:19:27;11.53;;;5.83;;
1062;SDS011;520;50.932;6.962;2022-10-31T18:22:17;8.37;;;5.07;;
1062;SDS011;520;50.932;6.962;2022-10-31T18:25:15;8.40;;;4.60;;
1062;SDS011;520;50.932;6.962;2022-10-31T18:34:48;5.93;;;4.40;;
1062;SDS011;520;50.932;6.962;2022-10-31T18:37:27;4.53;;;3.97;;
1062;SDS011;520;50.932;6.962;2022-10-31T18:40:32;10.03;;;5.30;;
1062;SDS011;520;50.932;6.962;2022-10-31T18:43:26;10.50;;;4.53;;
1062;SDS011;520;50.932;6.962;2022-10-31T18:46:11;7.17;;;4.60;;
1062;SDS011;520;50.932;6.962;2022-10-31T18:49:02;4.67;;;4.20;;
1062;SDS011;520;50.932;6.962;2022-10-31T18:51:52;5.63;;;4.20;;
1062;SDS011;520;50.932;6.962;2022-10-31T18:54:57;8.30;;;4.83;;
1062;SDS011;520;50.932;6.962;2022-10-31T18:57:54;9.70;;;4.57;;
1062;SDS011;520;50.932;6.962;2022-10-31T19:00:49;7.27;;;5.57;;
1062;SDS011;520;50.932;6.962;2022-10-31T19:03:24;10.93;;;6.07;;
1062;SDS011;520;50.932;6.962;2022-10-31T19:06:15;9.80;;;4.13;;
1062;SDS011;520;50.932;6.962;2022-10-31T19:09:00;5.00;;;4.50;;
1062;SDS011;520;50.932;6.962;2022-10-31T19:11:38;7.60;;;4.57;;
1062;SDS011;520;50.932;6.962;2022-10-31T19:14:13;8.83;;;5.60;;
1062;SDS011;520;50.932;6.962;2022-10-31T19:16:49;6.03;;;4.50;;
1062;SDS011;520;50.932;6.962;2022-10-31T19:19:19;7.87;;;5.20;;
1062;SDS011;520;50.932;6.962;2022-10-31T19:25:35;8.93;;;5.43;;
1062;SDS011;520;50.932;6.962;2022-10-31T19:28:18;6.90;;;5.43;;
1062;SDS011;520;50.932;6.962;2022-10-31T19:30:56;8.40;;;5.37;;
1062;SDS011;520;50.932;6.962;2022-10-31T19:33:30;6.63;;;4.90;;
1062;SDS011;520;50.932;6.962;2022-10-31T19:36:13;6.13;;;4.70;;
1062;SDS011;520;50.932;6.962;2022-10-31T19:38:57;6.67;;;4.80;;
1062;SDS011;520;50.932;6.962;2022-10-31T19:41:34;8.47;;;5.10;;
1062;SDS011;520;50.932;6.962;2022-10-31T19:44:23;10.13;;;5.30;;
1062;SDS011;520;50.932;6.962;2022-10-31T19:47:33;8.97;;;4.83;;
1062;SDS011;520;50.932;6.962;2022-10-31T19:50:17;6.23;;;4.30;;
1062;SDS011;520;50.932;6.962;2022-10-31T19:53:09;13.13;;;7.23;;
1062;SDS011;520;50.932;6.962;2022-10-31T19:55:52;6.80;;;5.20;;
1062;SDS011;520;50.932;6.962;2022-10-31T19:58:25;7.47;;;4.80;;
1062;SDS011;520;50.932;6.962;2022-10-31T20:01:12;8.60;;;4.80;;
1062;SDS011;520;50.932;6.962;2022-10-31T20:04:19;8.80;;;5.43;;
1062;SDS011;520;50.932;6.962;2022-10-31T20:07:24;4.97;;;4.20;;
1062;SDS011;520;50.932;6.962;2022-10-31T20:10:00;7.10;;;4.80;;
1062;SDS011;520;50.932;6.962;2022-10-31T20:12:37;9.33;;;4.87;;
1062;SDS011;520;50.932;6.962;2022-10-31T20:15:14;9.00;;;6.03;;
1062;SDS011;520;50.932;6.962;2022-10-31T20:17:58;7.10;;;5.30;;
1062;SDS011;520;50.932;6.962;2022-10-31T20:20:52;10.10;;;5.60;;
1062;SDS011;520;50.932;6.962;2022-10-31T20:24:04;10.50;;;5.30;;
1062;SDS011;520;50.932;6.962;2022-10-31T20:26:47;7.13;;;4.53;;
1062;SDS011;520;50.932;6.962;2022-10-31T20:29:14;12.80;;;5.37;;
1062;SDS011;520;50.932;6.962;2022-10-31T20:31:41;6.70;;;4.30;;
1062;SDS011;520;50.932;6.962;2022-10-31T20:34:10;12.13;;;7.50;;
1062;SDS011;520;50.932;6.962;2022-10-31T20:36:47;11.00;;;6.00;;
1062;SDS011;520;50.932;6.962;2022-10-31T20:39:27;10.73;;;5.83;;
1062;SDS011;520;50.932;6.962;2022-10-31T20:42:32;7.87;;;5.20;;
1062;SDS011;520;50.932;6.962;2022-10-31T20:45:34;7.43;;;5.87;;
1062;SDS011;520;50.932;6.962;2022-10-31T20:51:32;5.47;;;4.97;;
1062;SDS011;520;50.932;6.962;2022-10-31T20:54:29;8.70;;;5.17;;
1062;SDS011;520;50.932;6.962;2022-10-31T20:57:12;6.67;;;5.30;;
1062;SDS011;520;50.932;6.962;2022-10-31T20:59:43;9.07;;;5.90;;
1062;SDS011;520;50.932;6.962;2022-10-31T21:02:34;6.83;;;5.80;;
1062;SDS011;520;50.932;6.962;2022-10-31T21:05:19;9.07;;;5.23;;
1062;SDS011;520;50.932;6.962;2022-10-31T21:08:00;8.80;;;5.57;;
1062;SDS011;520;50.932;6.962;2022-10-31T21:10:53;6.80;;;5.20;;
1062;SDS011;520;50.932;6.962;2022-10-31T21:13:41;10.27;;;5.43;;
1062;SDS011;520;50.932;6.962;2022-10-31T21:16:28;7.90;;;5.23;;
1062;SDS011;520;50.932;6.962;2022-10-31T21:19:21;10.00;;;5.00;;
1062;SDS011;520;50.932;6.962;2022-10-31T21:21:59;9.13;;;5.73;;
1062;SDS011;520;50.932;6.962;2022-10-31T21:24:37;7.13;;;4.97;;
1062;SDS011;520;50.932;6.962;2022-10-31T21:27:23;7.33;;;5.33;;
1062;SDS011;520;50.932;6.962;2022-10-31T21:29:52;11.33;;;5.17;;
1062;SDS011;520;50.932;6.962;2022-10-31T21:32:24;7.10;;;4.80;;
1062;SDS011;520;50.932;6.962;2022-10-31T21:34:53;5.70;;;5.10;;
1062;SDS011;520;50.932;6.962;2022-10-31T21:37:24;7.20;;;4.43;;
1062;SDS011;520;50.932;6.962;2022-10-31T21:39:54;7.23;;;5.30;;
1062;SDS011;520;50.932;6.962;2022-10-31T21:42:28;9.87;;;5.80;;
1062;SDS011;520;50.932;6.962;2022-10-31T21:45:30;7.50;;;4.77;;
1062;SDS011;520;50.932;6.962;2022-10-31T21:48:06;7.80;;;5.10;;
1062;SDS011;520;50.932;6.962;2022-10-31T21:50:37;9.73;;;5.33;;
1062;SDS011;520;50.932;6.962;2022-10-31T21:53:16;6.70;;;5.10;;
1062;SDS011;520;50.932;6.962;2022-10-31T21:56:02;5.90;;;5.30;;
1062;SDS011;520;50.932;6.962;2022-10-31T21:58:43;7.07;;;5.10;;
1062;SDS011;520;50.932;6.962;2022-10-31T22:01:10;9.33;;;5.57;;
1062;SDS011;520;50.932;6.962;2022-10-31T22:03:40;8.57;;;5.90;;
1062;SDS011;520;50.932;6.962;2022-10-31T22:06:19;12.77;;;5.90;;
1062;SDS011;520;50.932;6.962;2022-10-31T22:08:52;8.63;;;5.03;;
1062;SDS011;520;50.932;6.962;2022-10-31T22:11:29;8.10;;;5.53;;
1062;SDS011;520;50.932;6.962;2022-10-31T22:14:06;10.53;;;5.07;;
1062;SDS011;520;50.932;6.962;2022-10-31T22:16:46;8.30;;;5.30;;
1062;SDS011;520;50.932;6.962;2022-10-31T22:19:39;5.83;;;5.20;;
1062;SDS011;520;50.932;6.962;2022-10-31T22:22:11;8.00;;;5.07;;
1062;SDS011;520;50.932;6.962;2022-10-31T22:24:46;11.83;;;4.77;;
1062;SDS011;520;50.932;6.962;2022-10-31T22:27:22;6.30;;;4.37;;
1062;SDS011;520;50.932;6.962;2022-10-31T22:29:54;5.43;;;4.93;;
1062;SDS011;520;50.932;6.962;2022-10-31T22:32:25;8.50;;;4.80;;
1062;SDS011;520;50.932;6.962;2022-10-31T22:35:22;5.90;;;4.30;;
1062;SDS011;520;50.932;6.962;2022-10-31T22:37:55;6.10;;;4.17;;
1062;SDS011;520;50.932;6.962;2022-10-31T22:40:31;8.37;;;5.10;;
1062;SDS011;520;50.932;6.962;2022-10-31T22:43:03;8.60;;;4.60;;
1062;SDS011;520;50.932;6.962;2022-10-31T22:45:34;8.40;;;5.33;;
1062;SDS011;520;50.932;6.962;2022-10-31T22:48:02;8.37;;;5.27;;
1062;SDS011;520;50.932;6.962;2022-10-31T22:50:33;9.20;;;5.10;;
1062;SDS011;520;50.932;6.962;2022-10-31T22:53:03;7.40;;;5.70;;
1062;SDS011;520;50.932;6.962;2022-10-31T22:55:38;7.90;;;5.53;;
1062;SDS011;520;50.932;6.962;2022-10-31T22:58:14;8.47;;;6.30;;
1062;SDS011;520;50.932;6.962;2022-10-31T23:00:44;9.90;;;5.30;;
1062;SDS011;520;50.932;6.962;2022-10-31T23:03:14;6.80;;;4.50;;
1062;SDS011;520;50.932;6.962;2022-10-31T23:05:41;7.73;;;4.70;;
1062;SDS011;520;50.932;6.962;2022-10-31T23:08:08;8.10;;;4.87;;
1062;SDS011;520;50.932;6.962;2022-10-31T23:10:38;8.10;;;4.97;;
1062;SDS011;520;50.932;6.962;2022-10-31T23:13:14;6.60;;;4.93;;
1062;SDS011;520;50.932;6.962;2022-10-31T23:16:00;5.80;;;5.20;;
1062;SDS011;520;50.932;6.962;2022-10-31T23:18:32;5.40;;;4.90;;
1062;SDS011;520;50.932;6.962;2022-10-31T23:21:19;8.40;;;5.30;;
1062;SDS011;520;50.932;6.962;2022-10-31T23:24:12;5.00;;;4.07;;
1062;SDS011;520;50.932;6.962;2022-10-31T23:26:49;8.77;;;4.80;;
1062;SDS011;520;50.932;6.962;2022-10-31T23:29:43;7.23;;;5.13;;
1062;SDS011;520;50.932;6.962;2022-10-31T23:32:37;7.90;;;4.70;;
1062;SDS011;520;50.932;6.962;2022-10-31T23:35:13;6.27;;;4.90;;
1062;SDS011;520;50.932;6.962;2022-10-31T23:37:42;6.30;;;4.90;;
1062;SDS011;520;50.932;6.962;2022-10-31T23:40:13;10.40;;;5.10;;
1062;SDS011;520;50.932;6.962;2022-10-31T23:42:43;8.67;;;5.10;;
1062;SDS011;520;50.932;6.962;2022-10-31T23:45:10;7.27;;;4.40;;
1062;SDS011;520;50.932;6.962;2022-10-31T23:47:42;6.03;;;4.60;;
1062;SDS011;520;50.932;6.962;2022-10-31T23:50:15;7.57;;;5.07;;
1062;SDS011;520;50.932;6.962;2022-10-31T23:52:47;8.30;;;5.10;;
1062;SDS011;520;50.932;6.962;2022-10-31T23:55:19;5.77;;;4.50;;
1062;SDS011;520;50.932;6.962;2022-10-31T23:57:48;12.17;;;4.73;;
